createdAt,value
2019-03-30T00:00:51.972Z,69.22
2019-03-30T00:03:18.541Z,69.11
2019-03-30T00:05:45.237Z,68.80
2019-03-30T00:08:11.811Z,69.11
2019-03-30T00:10:38.570Z,70.01
2019-03-30T00:13:05.175Z,70.05
2019-03-30T00:15:31.851Z,69.59
2019-03-30T00:17:58.646Z,69.57
2019-03-30T00:20:25.196Z,69.15
2019-03-30T00:22:52.885Z,69.85
2019-03-30T00:25:19.565Z,69.16
2019-03-30T00:27:46.246Z,69.28
2019-03-30T00:30:13.274Z,69.31
2019-03-30T00:32:39.953Z,69.23
2019-03-30T00:35:06.955Z,69.56
2019-03-30T00:37:35.035Z,70.12
2019-03-30T00:40:02.632Z,70.78
2019-03-30T00:42:29.236Z,69.91
2019-03-30T00:44:55.833Z,69.45
2019-03-30T00:47:22.399Z,69.81
2019-03-30T00:49:50.195Z,70.22
2019-03-30T00:52:17.203Z,69.05
2019-03-30T00:54:43.878Z,69.72
2019-03-30T00:57:10.528Z,69.22
2019-03-30T00:59:37.360Z,69.03
2019-03-30T01:02:04.151Z,68.47
2019-03-30T01:04:30.994Z,67.58
2019-03-30T01:06:57.628Z,67.55
2019-03-30T01:09:24.291Z,67.09
2019-03-30T01:11:51.069Z,66.57
2019-03-30T01:14:18.266Z,66.58
2019-03-30T01:16:45.015Z,66.71
2019-03-30T01:19:11.673Z,67.83
2019-03-30T01:21:38.310Z,68.39
2019-03-30T01:24:06.954Z,68.17
2019-03-30T01:26:33.523Z,68.69
2019-03-30T01:29:00.103Z,68.41
2019-03-30T01:31:26.757Z,68.71
2019-03-30T01:33:53.367Z,68.27
2019-03-30T01:36:20.117Z,67.91
2019-03-30T01:38:47.189Z,66.91
2019-03-30T01:41:13.845Z,66.73
2019-03-30T01:43:40.531Z,66.56
2019-03-30T01:46:07.066Z,66.24
2019-03-30T01:48:33.664Z,67.93
2019-03-30T01:51:00.276Z,68.63
2019-03-30T01:53:26.866Z,69.19
2019-03-30T01:55:53.523Z,69.09
2019-03-30T01:58:20.163Z,69.01
2019-03-30T02:00:46.867Z,67.92
2019-03-30T02:03:13.710Z,67.97
2019-03-30T02:05:40.419Z,68.79
2019-03-30T02:08:07.013Z,68.98
2019-03-30T02:10:38.800Z,69.13
2019-03-30T02:13:05.638Z,69.15
2019-03-30T02:15:32.419Z,68.99
2019-03-30T02:17:59.044Z,68.87
2019-03-30T02:20:31.359Z,68.73
2019-03-30T02:22:57.947Z,68.63
2019-03-30T02:25:24.621Z,67.94
2019-03-30T02:28:47.526Z,68.10
2019-03-30T02:31:15.393Z,67.29
2019-03-30T02:33:41.986Z,66.88
2019-03-30T02:36:08.799Z,66.50
2019-03-30T02:38:35.450Z,67.37
2019-03-30T02:41:02.246Z,66.76
2019-03-30T02:43:28.837Z,66.86
2019-03-30T02:45:55.395Z,66.52
2019-03-30T02:48:21.944Z,66.84
2019-03-30T02:50:50.617Z,67.30
2019-03-30T02:53:17.061Z,66.40
2019-03-30T02:55:43.785Z,66.67
2019-03-30T02:58:10.397Z,65.45
2019-03-30T03:00:37.392Z,64.72
2019-03-30T03:03:04.133Z,64.37
2019-03-30T03:05:30.791Z,64.46
2019-03-30T03:07:57.546Z,64.43
2019-03-30T03:10:24.471Z,64.45
2019-03-30T03:12:52.240Z,64.19
2019-03-30T03:15:19.001Z,64.42
2019-03-30T03:17:46.236Z,63.85
2019-03-30T03:20:13.218Z,64.22
2019-03-30T03:22:39.829Z,63.87
2019-03-30T03:25:07.532Z,64.15
2019-03-30T03:27:34.377Z,63.69
2019-03-30T03:30:01.470Z,64.07
2019-03-30T03:32:28.442Z,63.44
2019-03-30T03:34:55.197Z,63.80
2019-03-30T03:37:21.797Z,64.26
2019-03-30T03:39:48.409Z,64.08
2019-03-30T03:42:15.005Z,63.51
2019-03-30T03:44:41.617Z,63.57
2019-03-30T03:47:08.301Z,63.82
2019-03-30T03:49:34.841Z,63.83
2019-03-30T03:52:02.430Z,63.65
2019-03-30T03:54:31.692Z,64.04
2019-03-30T03:56:58.985Z,63.86
2019-03-30T03:59:26.869Z,63.54
2019-03-30T04:01:55.288Z,63.89
2019-03-30T04:04:25.946Z,63.71
2019-03-30T04:06:58.206Z,63.78
2019-03-30T04:09:29.123Z,64.51
2019-03-30T04:11:57.780Z,64.41
2019-03-30T04:14:25.278Z,64.44
2019-03-30T04:16:51.937Z,64.86
2019-03-30T04:19:18.710Z,64.08
2019-03-30T04:21:45.426Z,64.12
2019-03-30T04:24:12.042Z,64.32
2019-03-30T04:26:39.808Z,63.96
2019-03-30T04:29:06.384Z,64.09
2019-03-30T04:31:33.142Z,63.80
2019-03-30T04:34:03.125Z,64.16
2019-03-30T04:36:29.766Z,64.64
2019-03-30T04:38:56.359Z,63.43
2019-03-30T04:41:23.005Z,63.92
2019-03-30T04:43:49.585Z,63.43
2019-03-30T04:46:16.196Z,63.28
2019-03-30T04:48:42.756Z,63.29
2019-03-30T04:51:09.365Z,62.71
2019-03-30T04:53:35.993Z,63.09
2019-03-30T04:56:03.177Z,63.51
2019-03-30T04:58:29.732Z,62.79
2019-03-30T05:00:56.351Z,62.93
2019-03-30T05:03:23.008Z,62.31
2019-03-30T05:05:49.661Z,62.68
2019-03-30T05:08:17.391Z,62.50
2019-03-30T05:10:44.008Z,63.08
2019-03-30T05:13:10.573Z,63.24
2019-03-30T05:15:37.284Z,62.95
2019-03-30T05:18:03.947Z,63.13
2019-03-30T05:20:30.609Z,62.73
2019-03-30T05:22:58.272Z,62.32
2019-03-30T05:25:24.873Z,61.97
2019-03-30T05:27:51.640Z,62.36
2019-03-30T05:30:18.248Z,62.38
2019-03-30T05:32:45.043Z,62.57
2019-03-30T05:35:11.848Z,62.88
2019-03-30T05:37:38.509Z,62.48
2019-03-30T05:40:06.804Z,62.85
2019-03-30T05:42:33.441Z,62.63
2019-03-30T05:45:00.053Z,62.66
2019-03-30T05:47:27.813Z,62.31
2019-03-30T05:49:54.391Z,62.53
2019-03-30T05:52:26.820Z,62.04
2019-03-30T05:54:49.510Z,61.88
2019-03-30T05:57:16.121Z,62.16
2019-03-30T05:59:42.669Z,62.60
2019-03-30T06:02:09.227Z,62.03
2019-03-30T06:04:35.945Z,61.75
2019-03-30T06:07:02.865Z,62.43
2019-03-30T06:09:29.454Z,61.25
2019-03-30T06:11:56.071Z,61.08
2019-03-30T06:14:22.648Z,61.05
2019-03-30T06:16:49.195Z,60.87
2019-03-30T06:19:15.766Z,61.02
2019-03-30T06:21:42.347Z,60.41
2019-03-30T06:24:09.573Z,60.90
2019-03-30T06:26:36.291Z,60.65
2019-03-30T06:29:03.093Z,60.34
2019-03-30T06:31:29.838Z,60.06
2019-03-30T06:33:56.652Z,60.97
2019-03-30T06:36:23.494Z,59.55
2019-03-30T06:38:50.438Z,59.77
2019-03-30T06:41:16.999Z,59.38
2019-03-30T06:43:43.562Z,59.72
2019-03-30T06:46:10.970Z,59.83
2019-03-30T06:48:37.630Z,59.39
2019-03-30T06:51:04.316Z,59.95
2019-03-30T06:53:30.966Z,59.35
2019-03-30T06:55:57.532Z,59.25
2019-03-30T06:58:24.169Z,59.33
2019-03-30T07:00:52.442Z,59.17
2019-03-30T07:03:19.341Z,59.29
2019-03-30T07:05:46.200Z,58.68
2019-03-30T07:08:15.078Z,59.19
2019-03-30T07:10:44.926Z,59.10
2019-03-30T07:13:13.348Z,59.48
2019-03-30T07:15:44.973Z,59.60
2019-03-30T07:18:13.711Z,58.58
2019-03-30T07:20:40.442Z,58.67
2019-03-30T07:23:12.358Z,58.22
2019-03-30T07:25:35.791Z,58.24
2019-03-30T07:28:02.721Z,58.72
2019-03-30T07:30:29.423Z,58.05
2019-03-30T07:32:56.373Z,57.52
2019-03-30T07:35:24.197Z,58.50
2019-03-30T07:37:51.044Z,58.35
2019-03-30T07:40:17.916Z,58.37
2019-03-30T07:42:46.363Z,57.64
2019-03-30T07:45:13.639Z,57.56
2019-03-30T07:47:40.706Z,57.62
2019-03-30T07:50:10.033Z,56.92
2019-03-30T07:52:37.482Z,57.98
2019-03-30T07:55:05.448Z,57.27
2019-03-30T07:57:35.891Z,56.67
2019-03-30T08:00:07.197Z,56.50
2019-03-30T08:02:33.856Z,56.37
2019-03-30T08:05:04.696Z,56.13
2019-03-30T08:07:31.605Z,56.08
2019-03-30T08:09:58.172Z,55.97
2019-03-30T08:12:26.031Z,56.82
2019-03-30T08:14:52.637Z,56.49
2019-03-30T08:17:19.552Z,56.68
2019-03-30T08:19:46.228Z,56.09
2019-03-30T08:22:12.995Z,56.42
2019-03-30T08:24:39.565Z,56.05
2019-03-30T08:27:06.158Z,56.50
2019-03-30T08:29:32.842Z,56.14
2019-03-30T08:31:59.428Z,55.65
2019-03-30T08:34:26.100Z,56.85
2019-03-30T08:36:52.712Z,56.89
2019-03-30T08:39:19.266Z,56.69
2019-03-30T08:41:45.874Z,56.17
2019-03-30T08:44:12.418Z,55.49
2019-03-30T08:46:39.005Z,55.79
2019-03-30T08:49:05.801Z,55.54
2019-03-30T08:51:32.462Z,55.59
2019-03-30T08:54:00.367Z,55.68
2019-03-30T08:56:28.122Z,55.11
2019-03-30T08:58:55.081Z,54.11
2019-03-30T09:01:21.710Z,54.64
2019-03-30T09:03:49.406Z,54.55
2019-03-30T09:06:16.082Z,54.92
2019-03-30T09:08:43.143Z,54.25
2019-03-30T09:11:09.712Z,54.57
2019-03-30T09:13:37.702Z,54.97
2019-03-30T09:16:04.498Z,54.73
2019-03-30T09:18:31.207Z,55.20
2019-03-30T09:20:57.839Z,54.25
2019-03-30T09:23:24.460Z,53.61
2019-03-30T09:25:51.160Z,53.16
2019-03-30T09:28:17.734Z,52.96
2019-03-30T09:30:44.622Z,53.03
2019-03-30T09:33:11.360Z,53.06
2019-03-30T09:35:38.214Z,52.90
2019-03-30T09:38:04.964Z,52.42
2019-03-30T09:40:33.655Z,52.33
2019-03-30T09:43:00.344Z,52.20
2019-03-30T09:45:26.964Z,52.20
2019-03-30T09:47:54.777Z,53.30
2019-03-30T09:50:21.578Z,52.45
2019-03-30T09:52:48.387Z,53.45
2019-03-30T09:55:15.343Z,51.88
2019-03-30T09:57:45.781Z,51.64
2019-03-30T10:00:12.790Z,51.48
2019-03-30T10:02:39.562Z,50.96
2019-03-30T10:05:08.916Z,51.38
2019-03-30T10:07:35.889Z,51.64
2019-03-30T10:12:55.850Z,52.98
2019-03-30T10:15:24.342Z,52.41
2019-03-30T10:17:51.016Z,51.35
2019-03-30T10:20:25.394Z,51.01
2019-03-30T10:22:52.184Z,51.59
2019-03-30T10:25:18.813Z,51.48
2019-03-30T10:27:45.913Z,51.80
2019-03-30T10:32:54.620Z,50.77
2019-03-30T10:35:21.414Z,50.71
2019-03-30T10:37:50.263Z,50.11
2019-03-30T10:40:20.732Z,49.83
2019-03-30T10:42:46.283Z,51.16
2019-03-30T10:45:13.307Z,51.53
2019-03-30T10:47:40.101Z,49.26
2019-03-30T10:50:09.096Z,49.04
2019-03-30T10:52:37.079Z,48.40
2019-03-30T10:55:05.633Z,48.71
2019-03-30T10:57:32.390Z,47.49
2019-03-30T11:00:00.385Z,46.99
2019-03-30T11:02:27.944Z,46.81
2019-03-30T11:04:55.741Z,46.75
2019-03-30T11:07:23.528Z,47.36
2019-03-30T11:09:50.644Z,47.09
2019-03-30T11:12:17.924Z,46.97
2019-03-30T11:14:44.909Z,47.72
2019-03-30T11:17:11.606Z,47.95
2019-03-30T11:19:39.071Z,46.92
2019-03-30T11:22:06.130Z,48.97
2019-03-30T11:24:32.730Z,48.58
2019-03-30T11:26:59.360Z,47.82
2019-03-30T11:29:26.128Z,47.40
2019-03-30T11:31:52.719Z,47.79
2019-03-30T11:35:15.807Z,47.09
2019-03-30T11:37:42.445Z,47.36
2019-03-30T11:40:24.302Z,47.76
2019-03-30T11:42:50.901Z,46.87
2019-03-30T11:45:17.815Z,47.70
2019-03-30T11:47:44.585Z,46.94
2019-03-30T11:50:11.492Z,47.34
2019-03-30T11:52:38.112Z,47.26
2019-03-30T11:55:06.044Z,46.97
2019-03-30T11:57:34.885Z,46.88
2019-03-30T12:00:58.118Z,46.20
2019-03-30T12:03:25.038Z,46.38
2019-03-30T12:05:51.957Z,45.81
2019-03-30T12:08:18.532Z,46.25
2019-03-30T12:10:45.180Z,45.37
2019-03-30T12:14:08.536Z,45.36
2019-03-30T12:16:38.068Z,46.24
2019-03-30T12:19:04.814Z,46.07
2019-03-30T12:21:31.414Z,46.17
2019-03-30T12:23:58.312Z,46.37
2019-03-30T12:26:25.461Z,46.52
2019-03-30T12:28:52.120Z,46.03
2019-03-30T12:31:18.867Z,46.13
2019-03-30T12:33:48.566Z,45.83
2019-03-30T12:36:17.430Z,45.33
2019-03-30T12:38:44.338Z,45.13
2019-03-30T12:41:12.225Z,45.47
2019-03-30T12:43:54.401Z,45.38
2019-03-30T12:46:21.361Z,45.19
2019-03-30T12:48:48.240Z,45.59
2019-03-30T12:51:14.880Z,45.38
2019-03-30T12:53:50.423Z,45.86
2019-03-30T12:56:15.403Z,45.92
2019-03-30T12:58:53.506Z,45.14
2019-03-30T13:01:21.426Z,45.10
2019-03-30T13:03:48.073Z,45.86
2019-03-30T13:06:14.906Z,45.33
2019-03-30T13:08:41.500Z,45.03
2019-03-30T13:11:08.167Z,45.15
2019-03-30T13:13:34.986Z,44.78
2019-03-30T13:16:01.739Z,44.33
2019-03-30T13:18:28.329Z,44.22
2019-03-30T13:20:54.907Z,44.22
2019-03-30T13:23:21.579Z,44.78
2019-03-30T13:25:48.183Z,45.13
2019-03-30T13:28:14.830Z,44.85
2019-03-30T13:30:41.690Z,45.00
2019-03-30T13:33:08.326Z,45.74
2019-03-30T13:35:34.989Z,44.63
2019-03-30T13:38:01.616Z,43.97
2019-03-30T13:40:28.357Z,43.81
2019-03-30T13:42:54.945Z,44.26
2019-03-30T13:45:21.735Z,44.53
2019-03-30T13:47:48.410Z,43.89
2019-03-30T13:50:15.360Z,44.13
2019-03-30T13:52:41.988Z,43.87
2019-03-30T13:55:09.152Z,45.42
2019-03-30T13:57:37.191Z,44.37
2019-03-30T14:00:07.167Z,44.38
2019-03-30T14:02:34.285Z,43.71
2019-03-30T14:05:02.792Z,43.08
2019-03-30T14:07:29.875Z,43.68
2019-03-30T14:09:57.234Z,43.89
2019-03-30T14:12:24.362Z,43.22
2019-03-30T14:14:51.543Z,42.94
2019-03-30T14:17:20.144Z,43.00
2019-03-30T14:19:48.521Z,43.43
2019-03-30T14:22:15.600Z,43.16
2019-03-30T14:24:42.697Z,43.87
2019-03-30T14:27:09.573Z,43.72
2019-03-30T14:29:36.671Z,42.82
2019-03-30T14:32:04.435Z,43.22
2019-03-30T14:34:31.380Z,43.50
2019-03-30T14:36:58.457Z,44.03
2019-03-30T14:39:25.793Z,43.11
2019-03-30T14:41:54.051Z,44.31
2019-03-30T14:44:24.352Z,43.61
2019-03-30T14:46:55.387Z,43.35
2019-03-30T14:49:23.077Z,45.27
2019-03-30T14:51:51.077Z,43.36
2019-03-30T14:54:19.525Z,43.33
2019-03-30T14:56:47.925Z,44.36
2019-03-30T14:59:16.215Z,44.90
2019-03-30T15:01:44.664Z,44.17
2019-03-30T15:04:14.569Z,44.81
2019-03-30T15:06:45.968Z,44.01
2019-03-30T15:09:14.321Z,43.83
2019-03-30T15:11:43.578Z,43.59
2019-03-30T15:14:14.852Z,46.64
2019-03-30T15:53:45.815Z,56.84
2019-03-30T15:56:13.061Z,51.75
2019-03-30T15:58:39.987Z,51.91
2019-03-30T16:01:07.247Z,51.79
2019-03-30T16:03:34.426Z,55.50
2019-03-30T16:06:01.413Z,51.76
2019-03-30T16:08:29.567Z,52.13
2019-03-30T16:10:56.605Z,57.92
2019-03-30T16:13:24.027Z,53.75
2019-03-30T16:15:51.310Z,52.84
2019-03-30T16:18:18.411Z,53.00
2019-03-30T16:20:45.909Z,51.38
2019-03-30T16:23:13.060Z,52.22
2019-03-30T16:25:40.058Z,53.05
2019-03-30T16:28:07.292Z,52.89
2019-03-30T16:30:34.782Z,52.82
2019-03-30T16:33:01.998Z,56.35
2019-03-30T16:35:29.065Z,57.94
2019-03-30T16:37:56.058Z,55.77
2019-03-30T16:40:23.023Z,56.03
2019-03-30T16:42:50.734Z,54.49
2019-03-30T16:45:17.612Z,55.49
2019-03-30T16:47:44.671Z,56.29
2019-03-30T16:50:14.585Z,58.49
2019-03-30T16:52:41.570Z,57.34
2019-03-30T16:55:09.031Z,57.20
2019-03-30T16:57:43.305Z,59.46
2019-03-30T17:00:10.040Z,58.86
2019-03-30T17:02:37.407Z,56.61
2019-03-30T17:05:06.495Z,57.61
2019-03-30T17:07:33.618Z,58.48
2019-03-30T17:10:00.593Z,58.92
2019-03-30T17:12:27.682Z,59.83
2019-03-30T17:14:54.579Z,60.25
2019-03-30T17:17:21.607Z,60.62
2019-03-30T17:19:48.597Z,61.39
2019-03-30T17:22:15.483Z,62.05
2019-03-30T17:24:42.393Z,62.04
2019-03-30T17:27:09.811Z,63.03
2019-03-30T17:29:36.957Z,62.93
2019-03-30T17:32:04.118Z,63.33
2019-03-30T17:34:31.192Z,63.09
2019-03-30T17:36:58.058Z,63.54
2019-03-30T17:39:25.043Z,63.96
2019-03-30T17:41:51.907Z,64.53
2019-03-30T17:44:19.209Z,64.68
2019-03-30T17:46:46.612Z,65.13
2019-03-30T17:49:13.558Z,64.69
2019-03-30T17:51:40.638Z,65.06
2019-03-30T17:54:07.630Z,65.05
2019-03-30T17:56:34.741Z,65.50
2019-03-30T17:59:01.958Z,65.81
2019-03-30T18:01:29.186Z,66.03
2019-03-30T18:03:56.067Z,66.10
2019-03-30T18:06:24.042Z,65.75
2019-03-30T18:08:51.541Z,65.57
2019-03-30T18:11:18.480Z,66.34
2019-03-30T18:13:45.489Z,66.50
2019-03-30T18:16:12.423Z,66.86
2019-03-30T18:18:39.496Z,66.70
2019-03-30T18:21:06.523Z,67.15
2019-03-30T18:23:33.155Z,66.66
2019-03-30T18:25:59.899Z,66.53
2019-03-30T18:28:27.533Z,66.31
2019-03-30T18:30:54.561Z,65.93
2019-03-30T18:33:23.508Z,66.83
2019-03-30T18:35:51.183Z,65.72
2019-03-30T18:38:18.798Z,66.22
2019-03-30T18:40:46.183Z,65.95
2019-03-30T18:43:13.097Z,65.75
2019-03-30T18:45:39.667Z,65.53
2019-03-30T18:48:12.622Z,65.86
2019-03-30T18:50:40.794Z,66.42
2019-03-30T18:53:08.246Z,66.78
2019-03-30T18:55:34.966Z,67.21
2019-03-30T18:58:01.825Z,67.31
2019-03-30T19:00:29.750Z,66.72
2019-03-30T19:03:00.059Z,66.91
2019-03-30T19:05:26.885Z,67.16
2019-03-30T19:07:53.644Z,67.30
2019-03-30T19:10:21.646Z,67.41
2019-03-30T19:12:48.515Z,67.72
2019-03-30T19:15:15.379Z,67.50
2019-03-30T19:17:42.045Z,67.59
2019-03-30T19:20:09.186Z,67.95
2019-03-30T19:22:35.820Z,68.65
2019-03-30T19:25:06.694Z,68.83
2019-03-30T19:27:34.681Z,68.46
2019-03-30T19:30:03.536Z,69.42
2019-03-30T19:32:30.981Z,67.91
2019-03-30T19:34:57.837Z,68.51
2019-03-30T19:37:24.847Z,68.38
2019-03-30T19:39:52.132Z,69.00
2019-03-30T19:42:18.967Z,69.32
2019-03-30T19:44:46.478Z,69.30
2019-03-30T19:47:13.784Z,69.49
2019-03-30T19:49:41.178Z,68.67
2019-03-30T19:52:08.554Z,68.79
2019-03-30T19:54:35.471Z,68.97
2019-03-30T19:57:02.425Z,68.14
2019-03-30T19:59:29.726Z,68.61
2019-03-30T20:01:59.017Z,68.20
2019-03-30T20:04:26.159Z,68.44
2019-03-30T20:06:53.905Z,68.93
2019-03-30T20:09:21.312Z,68.85
2019-03-30T20:11:48.509Z,68.51
2019-03-30T20:14:15.622Z,68.83
2019-03-30T20:16:43.673Z,68.82
2019-03-30T20:19:12.469Z,68.75
2019-03-30T20:21:39.727Z,68.61
2019-03-30T20:24:06.690Z,69.22
2019-03-30T20:26:33.733Z,69.08
2019-03-30T20:29:00.552Z,69.47
2019-03-30T20:31:27.236Z,69.65
2019-03-30T20:33:53.810Z,69.23
2019-03-30T20:36:20.813Z,70.05
2019-03-30T20:38:47.654Z,68.80
2019-03-30T20:41:14.647Z,69.08
2019-03-30T20:43:41.408Z,69.12
2019-03-30T20:46:07.958Z,68.71
2019-03-30T20:48:35.849Z,70.07
2019-03-30T20:51:02.482Z,69.92
2019-03-30T20:53:29.294Z,69.46
2019-03-30T20:55:56.331Z,69.62
2019-03-30T20:58:22.986Z,68.69
2019-03-30T21:00:49.833Z,69.25
2019-03-30T21:03:16.496Z,69.47
2019-03-30T21:05:43.121Z,69.53
2019-03-30T21:08:10.490Z,70.17
2019-03-30T21:10:37.181Z,69.53
2019-03-30T21:13:04.118Z,69.22
2019-03-30T21:15:30.779Z,69.88
2019-03-30T21:17:57.684Z,69.79
2019-03-30T21:20:24.355Z,69.77
2019-03-30T21:22:50.946Z,69.46
2019-03-30T21:25:17.696Z,70.29
2019-03-30T21:27:44.347Z,69.12
2019-03-30T21:30:12.309Z,68.88
2019-03-30T21:32:39.212Z,69.39
2019-03-30T21:35:06.442Z,69.42
2019-03-30T21:37:33.328Z,69.70
2019-03-30T21:39:59.971Z,69.81
2019-03-30T21:42:27.889Z,69.62
2019-03-30T21:44:54.661Z,69.10
2019-03-30T21:47:21.257Z,69.51
2019-03-30T21:49:48.200Z,69.93
2019-03-30T21:52:14.823Z,70.00
2019-03-30T21:54:43.369Z,69.75
2019-03-30T21:57:09.927Z,71.17
2019-03-30T21:59:36.740Z,70.29
2019-03-30T22:02:03.442Z,69.99
2019-03-30T22:04:31.117Z,70.11
2019-03-30T22:06:57.946Z,69.99
2019-03-30T22:09:25.156Z,70.47
2019-03-30T22:11:51.844Z,70.24
2019-03-30T22:14:18.757Z,69.85
2019-03-30T22:16:46.443Z,70.68
2019-03-30T22:19:13.049Z,70.54
2019-03-30T22:21:39.788Z,70.94
2019-03-30T22:24:06.488Z,70.86
2019-03-30T22:26:33.049Z,71.12
2019-03-30T22:29:00.851Z,70.70
2019-03-30T22:31:29.463Z,70.54
2019-03-30T22:33:56.067Z,71.00
2019-03-30T22:36:22.906Z,70.90
2019-03-30T22:38:49.509Z,70.11
2019-03-30T22:41:16.224Z,70.79
2019-03-30T22:43:43.895Z,71.33
2019-03-30T22:46:11.806Z,71.70
2019-03-30T22:48:38.360Z,71.08
2019-03-30T22:51:04.965Z,71.06
2019-03-30T22:53:31.541Z,70.97
2019-03-30T22:55:58.344Z,71.33
2019-03-30T22:58:25.059Z,70.59
2019-03-30T23:00:57.137Z,70.69
2019-03-30T23:03:24.938Z,70.74
2019-03-30T23:05:51.660Z,71.34
2019-03-30T23:08:18.307Z,71.43
2019-03-30T23:10:44.984Z,71.97
2019-03-30T23:13:13.628Z,72.43
2019-03-30T23:15:40.322Z,72.53
2019-03-30T23:18:06.949Z,72.63
2019-03-30T23:20:33.615Z,73.58
2019-03-30T23:23:00.210Z,72.46
2019-03-30T23:25:26.784Z,72.01
2019-03-30T23:27:53.509Z,71.05
2019-03-30T23:30:20.154Z,71.69
2019-03-30T23:32:46.702Z,71.54
2019-03-30T23:35:16.442Z,71.46
2019-03-30T23:37:43.043Z,72.08
2019-03-30T23:40:09.833Z,71.16
2019-03-30T23:42:36.448Z,71.42
2019-03-30T23:45:04.755Z,71.14
2019-03-30T23:47:32.581Z,70.89
2019-03-30T23:49:59.184Z,71.65
2019-03-30T23:52:25.694Z,71.71
2019-03-30T23:54:52.264Z,72.20
2019-03-30T23:57:18.825Z,72.58
2019-03-30T23:59:45.473Z,72.49
